Time;durP1;ratioP1;P1;durP2;ratioP2;P2;SDS_P1;SDS_P2;PMS_P1;PMS_P2;Temp;Humidity;BMP_temperature;BMP_pressure;BME280_temperature;BME280_humidity;BME280_pressure;Samples;Min_cycle;Max_cycle;Signal;HPM_P1;HPM_P2
2021/12/23 00:02:23;;;;;;;36.20;20.37;;;;;;;;;;5025354;28;20302;-84
2021/12/23 00:04:51;;;;;;;39.20;20.90;;;;;;;;;;5039320;28;20292;-85
2021/12/23 00:07:18;;;;;;;35.87;20.63;;;;;;;;;;5028822;28;20258;-84
2021/12/23 00:10:05;;;;;;;39.03;21.00;;;;;;;;;;5037799;28;20233;-84
2021/12/23 00:12:32;;;;;;;32.17;20.13;;;;;;;;;;5030786;28;20248;-81
2021/12/23 00:15:00;;;;;;;34.70;20.90;;;;;;;;;;5040890;28;20202;-83
2021/12/23 00:17:53;;;;;;;34.67;20.53;;;;;;;;;;5052213;28;20236;-83
2021/12/23 00:26:01;;;;;;;34.63;19.13;;;;;;;;;;5017630;28;20210;-84
2021/12/23 00:28:29;;;;;;;32.73;20.27;;;;;;;;;;5034675;28;20206;-84
2021/12/23 00:30:56;;;;;;;33.73;18.83;;;;;;;;;;5043724;28;20296;-84
2021/12/23 00:33:25;;;;;;;36.70;20.90;;;;;;;;;;5055922;28;20276;-84
2021/12/23 00:35:54;;;;;;;33.77;19.57;;;;;;;;;;5047457;28;20268;-84
2021/12/23 00:38:26;;;;;;;36.30;20.00;;;;;;;;;;5026737;28;20217;-83
2021/12/23 00:40:54;;;;;;;32.87;18.47;;;;;;;;;;5019383;28;20226;-84
2021/12/23 00:43:21;;;;;;;36.63;20.30;;;;;;;;;;5040147;28;20198;-84
2021/12/23 00:45:49;;;;;;;33.30;19.80;;;;;;;;;;5028534;28;20221;-84
2021/12/23 00:48:16;;;;;;;36.40;20.00;;;;;;;;;;5030197;28;20234;-84
2021/12/23 00:50:46;;;;;;;37.07;20.20;;;;;;;;;;5018365;28;20197;-84
2021/12/23 00:53:17;;;;;;;35.83;19.93;;;;;;;;;;5038872;28;20236;-84
2021/12/23 00:55:45;;;;;;;36.83;21.13;;;;;;;;;;5035668;28;20237;-84
2021/12/23 00:58:12;;;;;;;38.93;20.40;;;;;;;;;;5031522;28;20220;-84
2021/12/23 01:00:40;;;;;;;36.53;21.63;;;;;;;;;;5032261;28;20245;-82
2021/12/23 01:03:07;;;;;;;38.13;21.43;;;;;;;;;;5034769;28;20214;-84
2021/12/23 01:05:35;;;;;;;35.30;20.20;;;;;;;;;;5040498;28;20324;-82
2021/12/23 01:08:04;;;;;;;34.60;20.23;;;;;;;;;;5030553;28;20257;-84
2021/12/23 01:10:32;;;;;;;34.63;20.33;;;;;;;;;;5030032;28;20237;-81
2021/12/23 01:13:02;;;;;;;29.13;17.77;;;;;;;;;;5026656;28;20211;-84
2021/12/23 01:18:21;;;;;;;36.10;20.40;;;;;;;;;;5024436;28;20281;-84
2021/12/23 01:20:53;;;;;;;36.83;19.33;;;;;;;;;;5029137;28;20221;-83
2021/12/23 01:23:23;;;;;;;34.17;19.13;;;;;;;;;;5029597;28;20209;-84
2021/12/23 01:25:51;;;;;;;35.20;19.60;;;;;;;;;;5024197;28;20218;-84
2021/12/23 01:28:19;;;;;;;31.00;18.83;;;;;;;;;;5034970;28;20235;-84
2021/12/23 01:30:46;;;;;;;35.70;20.93;;;;;;;;;;5024696;28;20284;-85
2021/12/23 01:33:14;;;;;;;33.70;19.83;;;;;;;;;;5020214;28;20305;-84
2021/12/23 01:35:44;;;;;;;35.90;20.53;;;;;;;;;;5034399;28;20237;-84
2021/12/23 01:38:11;;;;;;;37.53;21.23;;;;;;;;;;5025522;28;20266;-84
2021/12/23 01:40:40;;;;;;;35.17;19.80;;;;;;;;;;5025489;28;20309;-84
2021/12/23 01:43:07;;;;;;;33.97;19.77;;;;;;;;;;5029267;28;20236;-84
2021/12/23 01:45:35;;;;;;;36.70;20.33;;;;;;;;;;5028807;28;20333;-85
2021/12/23 01:48:03;;;;;;;34.70;20.40;;;;;;;;;;5035102;28;20262;-83
2021/12/23 01:50:30;;;;;;;35.80;19.37;;;;;;;;;;5030763;28;20198;-83
2021/12/23 01:52:59;;;;;;;35.80;20.30;;;;;;;;;;5024961;28;20205;-83
2021/12/23 01:55:27;;;;;;;32.47;19.17;;;;;;;;;;5025743;28;20205;-84
2021/12/23 01:57:56;;;;;;;29.87;18.53;;;;;;;;;;5023174;28;20293;-85
2021/12/23 02:00:25;;;;;;;36.33;20.90;;;;;;;;;;5019995;28;20243;-84
2021/12/23 02:02:53;;;;;;;35.47;20.07;;;;;;;;;;5026419;28;20416;-84
2021/12/23 02:05:21;;;;;;;32.73;19.20;;;;;;;;;;5028997;28;20289;-84
2021/12/23 02:07:48;;;;;;;32.67;19.47;;;;;;;;;;5033029;28;20294;-84
2021/12/23 02:10:15;;;;;;;33.67;19.57;;;;;;;;;;5026996;28;20271;-84
2021/12/23 02:12:44;;;;;;;35.33;21.07;;;;;;;;;;5019478;28;20257;-84
2021/12/23 02:15:13;;;;;;;37.70;20.97;;;;;;;;;;5026930;28;20233;-84
2021/12/23 02:17:40;;;;;;;34.17;19.10;;;;;;;;;;5031489;28;20225;-86
2021/12/23 02:20:10;;;;;;;30.53;18.10;;;;;;;;;;5015100;28;20321;-85
2021/12/23 02:22:37;;;;;;;35.17;22.67;;;;;;;;;;5019706;28;20268;-84
2021/12/23 02:25:05;;;;;;;34.70;20.40;;;;;;;;;;5031825;28;20305;-84
2021/12/23 02:27:33;;;;;;;35.43;21.80;;;;;;;;;;5028262;28;20475;-83
2021/12/23 02:30:00;;;;;;;35.03;19.93;;;;;;;;;;5032817;28;20206;-84
2021/12/23 02:32:27;;;;;;;35.43;20.57;;;;;;;;;;5026149;28;20273;-84
2021/12/23 02:34:55;;;;;;;34.90;21.33;;;;;;;;;;5022565;28;20225;-86
2021/12/23 02:37:25;;;;;;;35.43;21.00;;;;;;;;;;5038413;28;20248;-84
2021/12/23 02:39:53;;;;;;;35.07;20.07;;;;;;;;;;5026723;28;20222;-84
2021/12/23 02:42:20;;;;;;;34.83;19.63;;;;;;;;;;5032175;28;20225;-87
2021/12/23 02:44:47;;;;;;;31.03;18.83;;;;;;;;;;5041535;28;20201;-81
2021/12/23 02:47:18;;;;;;;34.67;19.60;;;;;;;;;;5029356;28;20313;-82
2021/12/23 02:49:45;;;;;;;36.53;19.30;;;;;;;;;;5028946;28;20280;-83
2021/12/23 02:52:12;;;;;;;34.47;19.07;;;;;;;;;;5038621;28;20210;-81
2021/12/23 02:54:41;;;;;;;33.87;19.87;;;;;;;;;;5024410;28;20198;-86
2021/12/23 02:57:09;;;;;;;38.60;21.17;;;;;;;;;;5041555;28;20232;-84
2021/12/23 02:59:36;;;;;;;33.80;19.70;;;;;;;;;;5041798;28;20208;-85
2021/12/23 03:02:03;;;;;;;39.73;20.80;;;;;;;;;;5026083;28;20315;-86
2021/12/23 03:04:32;;;;;;;35.93;20.57;;;;;;;;;;5023020;28;20197;-84
2021/12/23 03:06:59;;;;;;;36.57;20.33;;;;;;;;;;5023668;28;20313;-84
2021/12/23 03:09:26;;;;;;;37.03;20.23;;;;;;;;;;5020771;28;20296;-84
2021/12/23 03:11:55;;;;;;;35.37;20.10;;;;;;;;;;5030301;28;20229;-84
2021/12/23 03:14:22;;;;;;;33.90;19.30;;;;;;;;;;5027303;28;20297;-84
2021/12/23 03:16:51;;;;;;;34.30;20.10;;;;;;;;;;5023277;28;20313;-84
2021/12/23 03:19:18;;;;;;;33.90;19.90;;;;;;;;;;5033757;28;20212;-84
2021/12/23 03:21:45;;;;;;;33.67;19.60;;;;;;;;;;5034452;28;20218;-84
2021/12/23 03:24:15;;;;;;;31.97;18.03;;;;;;;;;;5042794;28;20288;-84
2021/12/23 03:26:42;;;;;;;36.83;20.17;;;;;;;;;;5022142;28;20261;-84
2021/12/23 03:29:11;;;;;;;33.37;19.17;;;;;;;;;;5038390;28;20265;-84
2021/12/23 03:31:38;;;;;;;35.50;19.30;;;;;;;;;;5039208;28;20262;-83
2021/12/23 03:34:06;;;;;;;32.60;18.73;;;;;;;;;;5043280;28;20220;-83
2021/12/23 03:36:33;;;;;;;31.83;19.30;;;;;;;;;;5046633;28;20261;-85
2021/12/23 03:39:00;;;;;;;30.03;18.17;;;;;;;;;;5042926;28;20217;-85
2021/12/23 03:41:28;;;;;;;31.83;18.33;;;;;;;;;;5052783;28;20226;-84
2021/12/23 03:43:55;;;;;;;29.53;17.73;;;;;;;;;;5030592;28;20253;-84
2021/12/23 03:46:24;;;;;;;33.43;19.03;;;;;;;;;;5040106;28;20259;-84
2021/12/23 03:48:51;;;;;;;32.20;18.63;;;;;;;;;;5046976;28;20240;-84
2021/12/23 03:51:19;;;;;;;29.70;17.97;;;;;;;;;;5030523;28;20233;-84
2021/12/23 03:53:46;;;;;;;28.97;17.87;;;;;;;;;;5033351;28;20214;-85
2021/12/23 03:56:14;;;;;;;31.20;18.47;;;;;;;;;;5030404;28;20226;-85
2021/12/23 03:58:41;;;;;;;30.97;19.07;;;;;;;;;;5018676;28;20210;-84
2021/12/23 04:01:08;;;;;;;31.80;19.10;;;;;;;;;;5025048;28;20245;-82
2021/12/23 04:03:37;;;;;;;30.60;18.83;;;;;;;;;;5033571;28;20317;-84
2021/12/23 04:06:05;;;;;;;31.27;18.27;;;;;;;;;;5017557;28;20788;-84
2021/12/23 04:08:32;;;;;;;29.80;18.53;;;;;;;;;;5033185;28;20298;-84
2021/12/23 04:11:00;;;;;;;31.43;17.77;;;;;;;;;;5034273;28;20313;-84
2021/12/23 04:13:27;;;;;;;30.93;18.33;;;;;;;;;;5023909;28;20212;-84
2021/12/23 04:15:55;;;;;;;29.00;18.10;;;;;;;;;;5033032;28;20293;-84
2021/12/23 04:18:22;;;;;;;28.63;18.83;;;;;;;;;;5045432;28;20225;-84
2021/12/23 04:20:54;;;;;;;26.47;16.67;;;;;;;;;;5037011;28;20308;-85
2021/12/23 04:23:22;;;;;;;28.97;17.27;;;;;;;;;;5040460;28;20205;-85
2021/12/23 04:25:49;;;;;;;27.23;16.30;;;;;;;;;;5031393;28;20257;-83
2021/12/23 04:28:16;;;;;;;29.20;18.10;;;;;;;;;;5029426;28;20202;-85
2021/12/23 04:30:44;;;;;;;29.67;18.13;;;;;;;;;;5029987;28;20202;-85
2021/12/23 04:33:11;;;;;;;28.60;17.10;;;;;;;;;;5020088;28;20223;-81
2021/12/23 04:35:39;;;;;;;27.87;16.17;;;;;;;;;;5017914;28;20268;-84
2021/12/23 04:38:08;;;;;;;31.53;18.33;;;;;;;;;;5026421;28;20201;-84
2021/12/23 04:40:36;;;;;;;30.33;18.40;;;;;;;;;;5029288;28;20245;-83
2021/12/23 04:43:04;;;;;;;28.50;17.73;;;;;;;;;;5041252;28;20186;-88
2021/12/23 04:45:32;;;;;;;30.03;18.17;;;;;;;;;;5047030;28;20202;-86
2021/12/23 04:47:59;;;;;;;30.60;18.50;;;;;;;;;;5060597;28;20201;-86
2021/12/23 04:50:26;;;;;;;27.37;17.47;;;;;;;;;;5054134;28;20194;-87
2021/12/23 04:52:54;;;;;;;28.33;17.77;;;;;;;;;;5048424;28;20191;-90
2021/12/23 04:55:22;;;;;;;30.23;18.73;;;;;;;;;;5049823;28;20179;-87
2021/12/23 04:57:50;;;;;;;31.07;18.97;;;;;;;;;;5039307;28;20203;-88
2021/12/23 05:00:18;;;;;;;27.70;16.93;;;;;;;;;;5057113;28;20190;-87
2021/12/23 05:02:45;;;;;;;27.37;18.57;;;;;;;;;;5062418;28;20269;-85
2021/12/23 05:05:13;;;;;;;29.70;17.13;;;;;;;;;;5058669;28;20190;-87
2021/12/23 05:07:41;;;;;;;26.97;17.43;;;;;;;;;;5052894;28;20194;-83
2021/12/23 05:10:09;;;;;;;28.90;16.17;;;;;;;;;;5043358;28;20210;-83
2021/12/23 05:12:44;;;;;;;24.70;15.50;;;;;;;;;;5046202;28;20201;-82
2021/12/23 05:15:11;;;;;;;27.93;16.70;;;;;;;;;;5017153;28;20248;-81
2021/12/23 05:17:39;;;;;;;28.43;17.13;;;;;;;;;;5028129;28;20228;-84
2021/12/23 05:20:07;;;;;;;29.70;17.50;;;;;;;;;;5047635;28;20225;-82
2021/12/23 05:22:34;;;;;;;31.90;18.60;;;;;;;;;;5047697;28;20320;-83
2021/12/23 05:25:01;;;;;;;29.07;18.07;;;;;;;;;;5042268;28;20232;-83
2021/12/23 05:27:29;;;;;;;27.80;16.70;;;;;;;;;;5043452;28;20213;-84
2021/12/23 05:29:58;;;;;;;29.33;16.93;;;;;;;;;;5048462;28;20297;-84
2021/12/23 05:32:25;;;;;;;30.00;16.47;;;;;;;;;;5035309;28;20221;-83
2021/12/23 05:34:52;;;;;;;30.17;17.87;;;;;;;;;;5047688;28;20198;-84
2021/12/23 05:37:19;;;;;;;30.33;17.70;;;;;;;;;;5035781;28;20226;-84
2021/12/23 05:39:47;;;;;;;28.97;16.90;;;;;;;;;;5028958;28;20274;-85
2021/12/23 05:42:14;;;;;;;29.63;17.70;;;;;;;;;;5015213;28;20219;-82
2021/12/23 05:44:41;;;;;;;32.30;17.37;;;;;;;;;;5028448;28;20197;-81
2021/12/23 05:47:10;;;;;;;26.37;16.17;;;;;;;;;;5016431;28;20273;-82
2021/12/23 05:49:37;;;;;;;26.50;16.63;;;;;;;;;;5017267;28;20222;-82
2021/12/23 05:52:06;;;;;;;26.37;16.63;;;;;;;;;;5036126;28;20203;-83
2021/12/23 05:54:33;;;;;;;26.97;16.40;;;;;;;;;;5044825;28;20265;-79
2021/12/23 05:57:02;;;;;;;29.67;17.37;;;;;;;;;;5035330;28;20240;-79
2021/12/23 05:59:29;;;;;;;26.83;16.50;;;;;;;;;;5041954;28;20199;-82
2021/12/23 06:01:57;;;;;;;29.00;18.00;;;;;;;;;;5025405;28;20240;-83
2021/12/23 06:04:26;;;;;;;27.90;16.93;;;;;;;;;;5031353;28;20229;-83
2021/12/23 06:06:53;;;;;;;27.13;16.13;;;;;;;;;;5030028;28;20225;-82
2021/12/23 06:09:21;;;;;;;31.90;17.30;;;;;;;;;;5041537;28;20217;-80
2021/12/23 06:11:48;;;;;;;26.90;16.10;;;;;;;;;;5048096;28;20259;-79
2021/12/23 06:14:16;;;;;;;31.80;17.73;;;;;;;;;;5031129;28;20283;-80
2021/12/23 06:16:43;;;;;;;27.70;16.57;;;;;;;;;;5028106;28;20293;-80
2021/12/23 06:19:13;;;;;;;29.90;17.57;;;;;;;;;;5026644;28;20198;-81
2021/12/23 06:21:43;;;;;;;29.10;17.17;;;;;;;;;;5032657;28;20222;-81
2021/12/23 06:24:10;;;;;;;27.63;16.57;;;;;;;;;;5034733;28;20205;-82
2021/12/23 06:26:37;;;;;;;32.17;17.73;;;;;;;;;;5034685;28;20218;-82
2021/12/23 06:34:34;;;;;;;28.70;18.23;;;;;;;;;;5035818;28;20201;-83
2021/12/23 06:37:04;;;;;;;28.10;16.67;;;;;;;;;;5036224;28;20242;-82
2021/12/23 06:39:31;;;;;;;27.47;16.63;;;;;;;;;;5036111;28;20198;-82
2021/12/23 06:41:58;;;;;;;26.73;16.57;;;;;;;;;;5033587;28;20283;-82
2021/12/23 06:44:25;;;;;;;27.97;16.47;;;;;;;;;;5029856;28;20288;-81
2021/12/23 06:46:53;;;;;;;27.30;17.23;;;;;;;;;;5036380;28;20308;-80
2021/12/23 06:49:21;;;;;;;25.80;16.67;;;;;;;;;;5032121;28;20225;-84
2021/12/23 06:51:48;;;;;;;26.80;16.20;;;;;;;;;;5033022;28;20205;-82
2021/12/23 06:54:17;;;;;;;25.70;16.07;;;;;;;;;;5038469;28;20194;-84
2021/12/23 06:56:46;;;;;;;28.73;16.67;;;;;;;;;;5032816;28;20269;-81
2021/12/23 06:59:15;;;;;;;25.13;15.40;;;;;;;;;;5027327;28;20217;-83
2021/12/23 07:01:46;;;;;;;28.60;17.57;;;;;;;;;;5030181;28;20656;-83
2021/12/23 07:04:15;;;;;;;25.57;16.17;;;;;;;;;;5027790;28;20237;-85
2021/12/23 07:06:47;;;;;;;25.57;16.53;;;;;;;;;;5037402;28;20230;-84
2021/12/23 07:09:15;;;;;;;26.00;16.00;;;;;;;;;;5027470;28;20218;-84
2021/12/23 07:11:44;;;;;;;24.97;15.30;;;;;;;;;;5033499;28;20234;-82
2021/12/23 07:14:11;;;;;;;27.43;15.53;;;;;;;;;;5019634;28;20225;-83
2021/12/23 07:16:40;;;;;;;27.20;16.10;;;;;;;;;;5025983;28;20348;-83
2021/12/23 07:19:08;;;;;;;28.50;17.23;;;;;;;;;;5037855;28;20267;-83
2021/12/23 07:21:35;;;;;;;28.53;17.00;;;;;;;;;;5018710;28;20223;-82
2021/12/23 07:24:03;;;;;;;29.17;16.80;;;;;;;;;;5019288;28;20210;-83
2021/12/23 07:26:30;;;;;;;28.50;17.60;;;;;;;;;;5026709;28;20232;-85
2021/12/23 07:28:59;;;;;;;28.17;17.80;;;;;;;;;;5030772;28;20297;-83
2021/12/23 07:31:27;;;;;;;25.80;16.37;;;;;;;;;;5037092;28;20206;-83
2021/12/23 07:33:54;;;;;;;29.73;16.90;;;;;;;;;;5019802;28;20310;-83
2021/12/23 07:36:22;;;;;;;27.60;16.40;;;;;;;;;;5025266;28;20226;-83
2021/12/23 07:38:50;;;;;;;31.43;17.07;;;;;;;;;;5025069;28;20699;-83
2021/12/23 07:41:17;;;;;;;26.97;18.00;;;;;;;;;;5030869;28;20249;-84
2021/12/23 07:43:56;;;;;;;30.97;17.57;;;;;;;;;;5035797;28;20202;-84
2021/12/23 07:46:26;;;;;;;27.17;16.87;;;;;;;;;;5042491;28;20224;-83
2021/12/23 07:48:53;;;;;;;29.40;17.40;;;;;;;;;;5038746;28;20229;-81
2021/12/23 07:51:21;;;;;;;29.87;17.80;;;;;;;;;;5035256;28;20263;-83
2021/12/23 07:53:48;;;;;;;27.47;17.17;;;;;;;;;;5031168;28;20312;-83
2021/12/23 07:56:16;;;;;;;29.57;16.97;;;;;;;;;;5035788;28;20226;-84
2021/12/23 07:58:43;;;;;;;28.37;17.30;;;;;;;;;;5035187;28;20229;-83
2021/12/23 08:01:10;;;;;;;27.50;16.87;;;;;;;;;;5037966;28;20221;-84
2021/12/23 08:03:44;;;;;;;32.30;17.37;;;;;;;;;;5035399;28;20272;-88
2021/12/23 08:06:12;;;;;;;29.07;18.00;;;;;;;;;;5036874;28;20268;-82
2021/12/23 08:08:51;;;;;;;33.70;18.80;;;;;;;;;;5035015;28;20202;-85
2021/12/23 08:11:21;;;;;;;32.63;18.73;;;;;;;;;;5025965;28;20203;-81
2021/12/23 08:13:48;;;;;;;28.43;16.60;;;;;;;;;;5031022;28;20206;-80
2021/12/23 08:16:15;;;;;;;29.27;17.63;;;;;;;;;;5029826;28;20226;-83
2021/12/23 08:18:44;;;;;;;29.37;17.30;;;;;;;;;;5038001;28;20198;-85
2021/12/23 08:21:11;;;;;;;28.80;17.30;;;;;;;;;;5043362;28;20248;-84
2021/12/23 08:23:42;;;;;;;26.13;16.73;;;;;;;;;;5042898;28;20223;-83
2021/12/23 08:26:15;;;;;;;26.33;16.90;;;;;;;;;;5035120;28;20237;-82
2021/12/23 08:28:42;;;;;;;28.40;18.00;;;;;;;;;;5038786;28;20233;-80
2021/12/23 08:31:10;;;;;;;27.30;16.53;;;;;;;;;;5035192;28;20206;-81
2021/12/23 08:33:37;;;;;;;27.60;16.93;;;;;;;;;;5041021;28;20218;-84
2021/12/23 08:36:07;;;;;;;28.70;18.20;;;;;;;;;;5037767;28;20283;-82
2021/12/23 08:38:37;;;;;;;31.10;17.83;;;;;;;;;;5038366;28;20213;-84
2021/12/23 08:41:04;;;;;;;29.50;17.77;;;;;;;;;;5026962;28;20234;-84
2021/12/23 08:43:32;;;;;;;29.17;17.87;;;;;;;;;;5025078;28;20222;-82
2021/12/23 08:45:59;;;;;;;29.17;18.20;;;;;;;;;;5017125;28;20280;-81
2021/12/23 08:48:26;;;;;;;26.63;16.57;;;;;;;;;;5027558;28;20431;-80
2021/12/23 08:50:53;;;;;;;30.47;19.67;;;;;;;;;;5027286;28;20257;-81
2021/12/23 08:53:22;;;;;;;30.80;18.50;;;;;;;;;;5032914;28;20233;-80
2021/12/23 08:55:50;;;;;;;30.40;17.73;;;;;;;;;;5033398;28;20280;-83
2021/12/23 08:58:17;;;;;;;26.67;16.77;;;;;;;;;;5030469;28;20275;-84
2021/12/23 09:00:45;;;;;;;27.43;16.47;;;;;;;;;;5039841;28;20210;-86
2021/12/23 09:03:12;;;;;;;30.33;17.87;;;;;;;;;;5024050;28;20254;-84
2021/12/23 09:05:41;;;;;;;25.57;17.30;;;;;;;;;;5021961;28;20260;-83
2021/12/23 09:08:09;;;;;;;27.50;17.67;;;;;;;;;;5051359;28;20182;-85
2021/12/23 09:10:38;;;;;;;27.40;18.20;;;;;;;;;;5037763;28;20294;-83
2021/12/23 09:13:06;;;;;;;27.77;17.67;;;;;;;;;;5035101;28;20203;-85
2021/12/23 09:15:33;;;;;;;27.37;17.37;;;;;;;;;;5040561;28;20230;-84
2021/12/23 09:18:02;;;;;;;25.67;17.17;;;;;;;;;;5033057;28;20198;-88
2021/12/23 09:20:30;;;;;;;28.43;18.53;;;;;;;;;;5053213;28;20213;-83
2021/12/23 09:22:57;;;;;;;24.67;16.87;;;;;;;;;;5047808;28;20248;-82
2021/12/23 09:25:29;;;;;;;26.67;18.00;;;;;;;;;;5042082;28;20217;-82
2021/12/23 09:28:05;;;;;;;24.93;16.97;;;;;;;;;;5031938;28;20256;-84
2021/12/23 09:33:19;;;;;;;25.87;16.63;;;;;;;;;;5024324;28;20266;-84
2021/12/23 09:35:47;;;;;;;26.73;16.77;;;;;;;;;;5025287;28;20254;-84
2021/12/23 09:38:17;;;;;;;30.13;17.73;;;;;;;;;;5024142;28;20230;-83
2021/12/23 09:40:44;;;;;;;26.47;17.07;;;;;;;;;;5031323;28;20209;-84
2021/12/23 09:43:14;;;;;;;28.03;17.63;;;;;;;;;;5036525;28;20298;-84
2021/12/23 09:45:43;;;;;;;26.77;18.30;;;;;;;;;;5031835;28;20226;-82
2021/12/23 09:48:10;;;;;;;28.87;18.97;;;;;;;;;;5029422;28;20198;-84
2021/12/23 09:50:40;;;;;;;30.23;18.63;;;;;;;;;;5028009;28;20206;-82
2021/12/23 09:53:08;;;;;;;26.43;17.90;;;;;;;;;;5017247;28;20296;-82
2021/12/23 09:55:39;;;;;;;26.03;17.27;;;;;;;;;;5024553;28;20300;-83
2021/12/23 09:58:09;;;;;;;29.53;17.13;;;;;;;;;;5033851;28;20205;-80
2021/12/23 10:00:42;;;;;;;28.33;18.47;;;;;;;;;;5034636;28;20202;-80
2021/12/23 10:03:09;;;;;;;29.03;18.70;;;;;;;;;;5033971;28;20217;-81
2021/12/23 10:05:37;;;;;;;25.40;18.70;;;;;;;;;;5031064;28;20273;-83
2021/12/23 10:08:06;;;;;;;26.73;18.47;;;;;;;;;;5033266;28;20198;-83
2021/12/23 10:10:41;;;;;;;26.03;17.57;;;;;;;;;;5029980;28;20217;-80
2021/12/23 10:26:52;;;;;;;32.17;18.50;;;;;;;;;;5032912;28;20678;-81
2021/12/23 10:27:41;;;;;;;32.43;18.93;;;;;;;;;;5016768;28;20222;-82
2021/12/23 10:38:28;;;;;;;25.77;17.37;;;;;;;;;;5032564;28;20287;-83
2021/12/23 10:40:57;;;;;;;25.03;17.30;;;;;;;;;;5026525;28;20551;-83
2021/12/23 10:43:27;;;;;;;27.77;18.30;;;;;;;;;;5027858;28;20368;-83
2021/12/23 10:45:57;;;;;;;27.13;17.87;;;;;;;;;;5026623;28;20221;-83
2021/12/23 10:48:29;;;;;;;22.33;17.20;;;;;;;;;;5034497;28;20212;-81
2021/12/23 10:51:03;;;;;;;27.30;16.93;;;;;;;;;;5036137;28;20289;-85
2021/12/23 10:59:06;;;;;;;22.90;16.97;;;;;;;;;;5033456;28;20209;-83
2021/12/23 11:01:36;;;;;;;26.30;17.10;;;;;;;;;;5032532;28;20277;-82
2021/12/23 11:04:07;;;;;;;29.67;17.13;;;;;;;;;;5036726;28;20228;-83
2021/12/23 11:06:42;;;;;;;26.83;16.77;;;;;;;;;;5031031;28;20221;-82
2021/12/23 11:09:34;;;;;;;24.30;16.73;;;;;;;;;;5033063;28;20224;-82
2021/12/23 11:27:24;;;;;;;25.80;17.13;;;;;;;;;;5032729;28;20293;-83
2021/12/23 11:37:50;;;;;;;29.27;17.03;;;;;;;;;;5013822;28;20194;-84
2021/12/23 11:40:36;;;;;;;26.87;17.37;;;;;;;;;;5038509;28;20206;-82
2021/12/23 11:43:27;;;;;;;27.33;17.03;;;;;;;;;;5026145;28;20240;-84
2021/12/23 11:45:55;;;;;;;25.00;16.20;;;;;;;;;;5027642;28;20225;-82
2021/12/23 11:48:23;;;;;;;28.80;16.87;;;;;;;;;;5037382;28;20202;-86
2021/12/23 11:51:06;;;;;;;26.73;18.83;;;;;;;;;;5028010;28;20634;-84
2021/12/23 11:53:37;;;;;;;23.43;16.30;;;;;;;;;;5023571;28;20266;-88
2021/12/23 11:56:06;;;;;;;25.83;17.80;;;;;;;;;;5026137;28;20226;-85
2021/12/23 12:13:34;;;;;;;25.63;16.27;;;;;;;;;;4972973;28;20358;-87
2021/12/23 12:52:40;;;;;;;25.33;17.93;;;;;;;;;;5022044;28;20209;-88
2021/12/23 12:55:15;;;;;;;25.97;17.53;;;;;;;;;;4989103;28;20293;-86
2021/12/23 13:00:53;;;;;;;25.60;17.83;;;;;;;;;;4990178;28;20254;-88
2021/12/23 13:03:22;;;;;;;24.80;17.83;;;;;;;;;;4991289;28;20227;-88
2021/12/23 13:06:03;;;;;;;27.77;18.13;;;;;;;;;;4990174;28;20207;-88
2021/12/23 13:08:39;;;;;;;27.67;17.63;;;;;;;;;;5025256;28;20201;-89
2021/12/23 13:11:20;;;;;;;25.27;17.60;;;;;;;;;;5027505;28;20203;-86
2021/12/23 13:13:59;;;;;;;26.80;16.83;;;;;;;;;;5028403;28;20241;-86
2021/12/23 13:16:27;;;;;;;27.30;17.20;;;;;;;;;;5038093;28;20271;-87
2021/12/23 13:19:09;;;;;;;27.40;17.40;;;;;;;;;;5017117;28;20238;-88
2021/12/23 13:21:47;;;;;;;24.17;16.70;;;;;;;;;;5022230;28;20205;-87
2021/12/23 13:24:22;;;;;;;26.33;17.30;;;;;;;;;;5022666;28;20217;-90
2021/12/23 13:26:54;;;;;;;30.17;17.20;;;;;;;;;;5016885;28;20264;-88
2021/12/23 13:29:26;;;;;;;25.80;16.60;;;;;;;;;;5026152;28;20242;-90
2021/12/23 13:31:54;;;;;;;26.73;17.23;;;;;;;;;;5024341;28;20213;-86
2021/12/23 13:34:27;;;;;;;30.50;17.20;;;;;;;;;;5030980;28;20305;-87
2021/12/23 13:37:06;;;;;;;30.03;17.83;;;;;;;;;;5050760;28;20204;-86
2021/12/23 13:39:37;;;;;;;31.57;18.40;;;;;;;;;;5084441;28;20262;-88
2021/12/23 13:42:05;;;;;;;28.47;17.73;;;;;;;;;;5096443;28;20218;-88
2021/12/23 13:44:36;;;;;;;28.57;18.57;;;;;;;;;;5096290;28;20218;-86
2021/12/23 13:47:07;;;;;;;23.60;17.03;;;;;;;;;;5097431;28;20287;-88
2021/12/23 13:49:35;;;;;;;23.83;17.03;;;;;;;;;;5098556;28;20220;-88
2021/12/23 13:52:05;;;;;;;25.57;17.60;;;;;;;;;;5097820;28;20256;-88
2021/12/23 13:54:50;;;;;;;27.47;17.23;;;;;;;;;;5107608;28;20203;-91
2021/12/23 13:57:29;;;;;;;22.87;16.10;;;;;;;;;;5116200;28;20219;-86
2021/12/23 13:59:56;;;;;;;24.50;17.53;;;;;;;;;;5108321;28;20228;-85
2021/12/23 14:02:25;;;;;;;25.60;16.23;;;;;;;;;;5096615;28;20204;-87
2021/12/23 14:04:53;;;;;;;26.97;17.10;;;;;;;;;;5097084;28;20226;-86
2021/12/23 14:07:27;;;;;;;24.83;16.97;;;;;;;;;;5097148;28;20246;-87
2021/12/23 14:09:58;;;;;;;24.70;16.77;;;;;;;;;;5090820;28;20219;-87
2021/12/23 14:12:42;;;;;;;28.03;17.33;;;;;;;;;;5093307;28;20210;-86
2021/12/23 14:15:11;;;;;;;27.17;16.27;;;;;;;;;;5090283;28;20196;-86
2021/12/23 14:17:41;;;;;;;32.10;19.87;;;;;;;;;;5094742;28;20251;-85
2021/12/23 14:23:15;;;;;;;28.63;17.67;;;;;;;;;;5095284;28;20273;-87
2021/12/23 14:25:54;;;;;;;26.43;17.73;;;;;;;;;;5078165;28;20212;-88
2021/12/23 14:28:24;;;;;;;27.20;18.30;;;;;;;;;;5095442;28;20200;-87
2021/12/23 14:33:42;;;;;;;23.97;16.40;;;;;;;;;;5033458;28;20614;-91
2021/12/23 14:36:13;;;;;;;25.80;17.13;;;;;;;;;;5034103;28;20215;-87
2021/12/23 14:39:04;;;;;;;21.17;15.37;;;;;;;;;;5097416;28;20262;-85
2021/12/23 14:54:57;;;;;;;24.33;15.80;;;;;;;;;;4945232;29;20738;-85
2021/12/23 14:57:31;;;;;;;22.63;16.83;;;;;;;;;;4958564;28;20215;-84
2021/12/23 15:00:27;;;;;;;27.13;17.47;;;;;;;;;;4986924;28;20265;-84
2021/12/23 15:03:04;;;;;;;23.10;13.30;;;;;;;;;;4990787;28;20209;-85
2021/12/23 15:05:33;;;;;;;21.63;14.03;;;;;;;;;;4986484;28;20218;-85
2021/12/23 15:08:09;;;;;;;23.03;15.33;;;;;;;;;;4992665;28;20203;-86
2021/12/23 15:14:16;;;;;;;25.03;17.27;;;;;;;;;;4987067;28;20191;-85
2021/12/23 15:16:47;;;;;;;19.37;14.73;;;;;;;;;;4997086;28;20211;-85
2021/12/23 15:19:24;;;;;;;19.40;14.90;;;;;;;;;;4998504;28;20219;-84
2021/12/23 15:43:13;;;;;;;29.27;21.17;;;;;;;;;;5741707;22;20312;-85
2021/12/23 15:45:48;;;;;;;26.70;18.07;;;;;;;;;;5078123;28;20220;-85
2021/12/23 15:48:18;;;;;;;23.73;17.90;;;;;;;;;;5095511;28;20204;-85
2021/12/23 15:51:10;;;;;;;23.67;18.87;;;;;;;;;;5071330;28;20208;-84
2021/12/23 15:53:47;;;;;;;;;;;;;;;;;;;;;
2021/12/23 15:57:09;;;;;;;23.97;17.13;;;;;;;;;;5062083;28;20212;-84
2021/12/23 16:07:47;;;;;;;28.33;20.80;;;;;;;;;;5391971;22;20233;-88
2021/12/23 16:10:35;;;;;;;23.23;18.20;;;;;;;;;;5055249;28;20217;-88
2021/12/23 16:13:14;;;;;;;24.87;17.53;;;;;;;;;;5053205;28;20208;-87
2021/12/23 16:18:34;;;;;;;28.53;19.43;;;;;;;;;;5019758;28;20234;-87
2021/12/23 16:21:08;;;;;;;24.90;17.33;;;;;;;;;;5015260;28;20205;-89
2021/12/23 16:23:51;;;;;;;22.57;16.47;;;;;;;;;;5052214;28;20201;-87
2021/12/23 16:32:32;;;;;;;25.77;16.00;;;;;;;;;;4997445;28;20241;-87
2021/12/23 16:41:20;;;;;;;22.23;15.83;;;;;;;;;;5022588;28;20650;-88
2021/12/23 16:50:05;;;;;;;16.73;13.07;;;;;;;;;;5010369;28;20227;-88
2021/12/23 16:59:05;;;;;;;9.00;7.37;;;;;;;;;;4956758;28;20235;-89
2021/12/23 18:03:16;;;;;;;12.93;9.40;;;;;;;;;;5038902;28;20221;-83
2021/12/23 18:05:46;;;;;;;10.73;8.07;;;;;;;;;;5039103;28;20252;-83
2021/12/23 18:08:13;;;;;;;10.13;7.93;;;;;;;;;;5039231;28;20204;-82
2021/12/23 18:10:42;;;;;;;12.50;9.60;;;;;;;;;;5047656;28;20229;-82
2021/12/23 18:13:10;;;;;;;13.10;9.27;;;;;;;;;;5035673;28;20209;-82
2021/12/23 18:15:39;;;;;;;11.33;7.67;;;;;;;;;;5031154;28;20289;-82
2021/12/23 18:18:07;;;;;;;11.73;7.60;;;;;;;;;;5034643;28;20209;-82
2021/12/23 18:20:36;;;;;;;8.63;6.17;;;;;;;;;;5037812;28;20241;-82
2021/12/23 18:23:04;;;;;;;10.63;6.30;;;;;;;;;;5034340;28;20228;-82
2021/12/23 18:25:35;;;;;;;9.00;6.33;;;;;;;;;;5033509;28;20241;-83
2021/12/23 18:28:02;;;;;;;8.90;6.50;;;;;;;;;;5032190;28;20656;-81
2021/12/23 18:30:30;;;;;;;8.07;6.13;;;;;;;;;;5034481;28;20312;-84
2021/12/23 18:33:01;;;;;;;7.90;6.30;;;;;;;;;;5034939;28;20206;-81
2021/12/23 18:35:32;;;;;;;6.77;5.60;;;;;;;;;;5032117;28;20202;-84
2021/12/23 18:38:04;;;;;;;8.57;5.80;;;;;;;;;;5039814;28;20293;-82
2021/12/23 18:40:38;;;;;;;7.90;5.60;;;;;;;;;;5033652;28;20217;-82
2021/12/23 18:43:07;;;;;;;6.47;4.60;;;;;;;;;;5035315;28;20236;-83
2021/12/23 18:45:35;;;;;;;6.87;5.27;;;;;;;;;;5035213;28;20280;-82
2021/12/23 18:48:07;;;;;;;8.20;5.40;;;;;;;;;;5036088;28;20258;-82
2021/12/23 18:50:36;;;;;;;6.10;5.50;;;;;;;;;;5034294;28;20261;-82
2021/12/23 18:53:06;;;;;;;7.67;5.70;;;;;;;;;;5035778;28;20201;-82
2021/12/23 18:55:35;;;;;;;7.00;6.17;;;;;;;;;;5030610;28;20221;-82
2021/12/23 18:58:03;;;;;;;6.43;5.80;;;;;;;;;;5035007;28;20202;-82